Time;durP1;ratioP1;P1;durP2;ratioP2;P2;SDS_P1;SDS_P2;PMS_P1;PMS_P2;Temp;Humidity;BMP_temperature;BMP_pressure;BME280_temperature;BME280_humidity;BME280_pressure;Samples;Min_cycle;Max_cycle;Signal;HPM_P1;HPM_P2
2022/12/23 00:01:03;;;;;;;8.67;1.40;;;;;;;22.14;58.55;98347.75;7311793;19;130359;-63
2022/12/23 00:03:30;;;;;;;49.30;4.82;;;;;;;22.07;59.20;98327.66;7309670;19;130806;-64
2022/12/23 00:05:55;;;;;;;;;;;;;;;22.15;60.05;98340.72;7313853;19;129552;-63
2022/12/23 00:08:21;;;;;;;13.17;1.73;;;;;;;22.11;58.39;98344.66;7313332;19;129080;-62
2022/12/23 00:10:48;;;;;;;28.98;3.75;;;;;;;22.09;57.62;98336.16;7307874;19;129197;-63
2022/12/23 00:16:07;;;;;;;64.75;6.60;;;;;;;21.98;59.38;98328.72;7306192;19;129216;-61
2022/12/23 00:18:33;;;;;;;38.10;3.70;;;;;;;21.92;57.67;98324.97;7311489;19;131030;-63
2022/12/23 00:21:00;;;;;;;9.43;1.63;;;;;;;21.90;58.75;98313.88;7310459;19;129239;-65
2022/12/23 00:23:26;;;;;;;15.35;2.03;;;;;;;21.88;58.24;98306.19;7311097;19;130017;-63
2022/12/23 00:25:51;;;;;;;45.53;4.45;;;;;;;21.88;58.70;98302.78;7310895;19;129076;-63
2022/12/23 00:28:19;;;;;;;33.83;3.60;;;;;;;21.91;59.19;98292.75;7308854;19;129154;-63
2022/12/23 00:30:49;;;;;;;39.70;4.35;;;;;;;21.88;58.94;98292.31;7309891;19;131882;-64
2022/12/23 00:33:16;;;;;;;19.58;2.22;;;;;;;21.87;59.15;98286.25;7312936;19;129232;-62
2022/12/23 00:35:43;;;;;;;15.85;1.75;;;;;;;21.88;58.53;98281.84;7305912;19;131787;-64
2022/12/23 00:38:08;;;;;;;;;;;;;;;21.98;60.23;98276.38;7313329;19;129872;-62
2022/12/23 00:43:17;;;;;;;27.27;3.42;;;;;;;21.94;59.07;98278.53;7312348;19;129381;-65
2022/12/23 00:45:43;;;;;;;11.38;1.58;;;;;;;21.90;59.05;98270.22;7308556;19;129161;-64
2022/12/23 00:50:52;;;;;;;29.95;3.35;;;;;;;21.98;59.20;98270.16;7309783;19;129122;-63
2022/12/23 00:53:18;;;;;;;21.10;2.35;;;;;;;21.98;59.25;98267.53;7310569;19;129986;-64
2022/12/23 00:55:46;;;;;;;22.85;2.58;;;;;;;21.78;56.88;98260.31;7311090;19;129820;-63
2022/12/23 00:58:16;;;;;;;20.73;2.20;;;;;;;21.60;57.12;98262.34;7312075;19;130064;-62
2022/12/23 01:06:11;;;;;;;26.35;2.80;;;;;;;21.52;58.69;98250.13;7312098;19;129824;-62
2022/12/23 01:08:37;;;;;;;40.30;3.72;;;;;;;21.61;58.10;98263.97;7311094;19;129508;-62
2022/12/23 01:11:03;;;;;;;14.90;2.00;;;;;;;21.66;58.92;98262.47;7308887;19;130128;-62
2022/12/23 01:13:29;;;;;;;18.65;2.22;;;;;;;21.70;58.61;98261.13;7311608;19;129135;-63
2022/12/23 01:16:03;;;;;;;57.17;5.40;;;;;;;21.72;60.22;98255.72;7309064;19;129167;-61
2022/12/23 01:18:28;;;;;;;32.63;3.50;;;;;;;21.67;58.67;98237.13;7311075;19;130143;-65
2022/12/23 01:20:53;;;;;;;23.27;2.70;;;;;;;21.80;59.10;98258.31;7308999;19;130039;-63
2022/12/23 01:23:19;;;;;;;18.15;2.08;;;;;;;21.78;58.77;98250.66;7309942;19;129214;-65
2022/12/23 01:25:44;;;;;;;21.55;2.53;;;;;;;21.76;59.14;98250.03;7307935;19;129332;-64
2022/12/23 01:28:09;;;;;;;24.70;2.53;;;;;;;21.80;59.42;98242.63;7309431;19;129114;-62
2022/12/23 01:30:36;;;;;;;31.33;3.57;;;;;;;21.83;58.07;98247.53;7308027;19;130024;-64
2022/12/23 01:33:02;;;;;;;24.88;3.00;;;;;;;21.78;58.80;98229.72;7307851;19;129832;-62
2022/12/23 01:35:27;;;;;;;30.38;3.38;;;;;;;21.81;58.72;98239.03;7310449;19;129782;-63
2022/12/23 01:37:52;;;;;;;13.57;2.17;;;;;;;21.79;59.52;98236.59;7309704;19;130193;-63
2022/12/23 01:40:18;;;;;;;26.67;2.97;;;;;;;21.63;59.22;98210.53;7308225;19;129729;-64
2022/12/23 01:42:43;;;;;;;22.17;2.97;;;;;;;21.78;59.22;98226.31;7308360;19;129789;-61
2022/12/23 01:45:14;;;;;;;32.20;3.42;;;;;;;21.69;59.57;98219.47;7310329;19;128887;-64
2022/12/23 01:47:40;;;;;;;21.70;2.58;;;;;;;21.76;58.65;98234.34;7310288;19;129370;-63
2022/12/23 01:50:35;;;;;;;13.07;1.73;;;;;;;21.75;60.86;98224.03;7307848;19;131142;-63
2022/12/23 01:53:06;;;;;;;19.20;2.08;;;;;;;21.76;59.31;98231.72;7311362;19;129246;-63
2022/12/23 01:55:39;;;;;;;12.88;1.80;;;;;;;21.78;59.97;98229.72;7309543;19;129578;-64
2022/12/23 01:58:12;;;;;;;20.95;2.42;;;;;;;21.76;59.32;98226.50;7308860;19;129336;-63
2022/12/23 02:03:42;;;;;;;21.95;2.60;;;;;;;21.75;59.15;98227.44;7310865;19;129772;-63
2022/12/23 02:12:06;;;;;;;23.85;2.60;;;;;;;21.72;60.74;98224.34;7307153;19;129166;-65
2022/12/23 02:18:10;;;;;;;21.85;2.58;;;;;;;21.69;60.14;98227.31;7310166;19;129547;-61
2022/12/23 02:20:54;;;;;;;30.42;3.50;;;;;;;21.71;60.24;98222.72;7308030;19;129997;-62
2022/12/23 02:23:22;;;;;;;23.00;2.58;;;;;;;21.69;58.86;98222.91;7309231;19;129142;-63
2022/12/23 02:26:01;;;;;;;38.17;3.75;;;;;;;21.60;60.49;98210.06;7308092;19;129688;-63
2022/12/23 02:28:38;;;;;;;34.65;3.50;;;;;;;21.68;60.43;98234.34;7308960;19;129087;-64
2022/12/23 02:31:24;;;;;;;26.75;2.78;;;;;;;21.68;60.94;98223.88;7307022;19;129683;-62
2022/12/23 02:34:04;;;;;;;27.40;2.90;;;;;;;21.64;59.04;98227.84;7309938;19;129158;-64
2022/12/23 02:37:08;;;;;;;23.73;2.70;;;;;;;21.69;60.42;98235.97;7311555;19;129164;-61
2022/12/23 02:39:52;;;;;;;14.85;1.83;;;;;;;21.64;60.65;98222.59;7315407;19;129825;-62
2022/12/23 02:42:28;;;;;;;40.53;3.97;;;;;;;21.64;60.95;98222.59;7311415;19;128962;-63
2022/12/23 02:45:15;;;;;;;20.10;2.60;;;;;;;21.62;60.83;98224.56;7315305;19;129730;-63
2022/12/23 02:47:49;;;;;;;26.70;2.88;;;;;;;21.47;59.33;98200.16;7315087;19;129736;-61
2022/12/23 02:50:25;;;;;;;22.13;2.42;;;;;;;21.61;60.22;98215.09;7315160;19;129791;-63
2022/12/23 02:52:52;;;;;;;46.47;4.57;;;;;;;21.62;59.46;98208.88;7313868;19;129960;-63
2022/12/23 02:55:23;;;;;;;23.45;2.40;;;;;;;21.60;60.28;98218.69;7312865;19;129916;-62
2022/12/23 02:57:53;;;;;;;29.70;3.00;;;;;;;21.47;58.82;98194.91;7313441;19;129550;-63
2022/12/23 03:00:20;;;;;;;33.30;3.55;;;;;;;21.58;59.10;98212.84;7313090;19;129407;-63
2022/12/23 03:02:45;;;;;;;16.30;2.08;;;;;;;21.58;60.61;98215.47;7314433;19;129296;-63
2022/12/23 03:05:28;;;;;;;22.15;2.58;;;;;;;21.45;60.57;98204.72;7314893;19;129024;-64
2022/12/23 03:08:01;;;;;;;16.98;2.03;;;;;;;21.51;60.52;98211.91;7314428;19;129651;-63
2022/12/23 03:10:48;;;;;;;37.85;3.97;;;;;;;21.47;60.79;98200.16;7313852;19;130199;-64
2022/12/23 03:13:58;;;;;;;30.55;2.85;;;;;;;21.53;61.54;98198.66;7314548;19;129788;-64
2022/12/23 03:16:52;;;;;;;9.38;1.52;;;;;;;21.48;61.10;98196.56;7314822;19;129550;-63
2022/12/23 03:19:32;;;;;;;17.95;2.55;;;;;;;21.47;60.79;98194.13;7313703;19;129588;-61
2022/12/23 03:22:19;;;;;;;20.95;2.53;;;;;;;21.44;61.08;98190.03;7311543;19;129475;-61
2022/12/23 03:25:16;;;;;;;18.10;2.15;;;;;;;21.46;60.67;98188.06;7314753;19;129456;-63
2022/12/23 03:27:55;;;;;;;17.67;1.95;;;;;;;21.44;61.27;98195.25;7314428;19;130615;-61
2022/12/23 03:30:22;;;;;;;23.50;2.85;;;;;;;21.45;60.24;98190.84;7313151;19;129860;-62
2022/12/23 03:32:55;;;;;;;25.73;2.88;;;;;;;21.45;61.58;98198.69;7314189;19;129084;-64
2022/12/23 03:35:28;;;;;;;26.75;2.88;;;;;;;21.39;61.31;98202.81;7315110;19;129360;-62
2022/12/23 03:37:56;;;;;;;25.48;2.60;;;;;;;21.41;60.90;98205.25;7313540;19;129425;-63
2022/12/23 03:40:26;;;;;;;38.45;3.58;;;;;;;21.40;61.44;98198.41;7313612;19;129828;-62
2022/12/23 03:42:57;;;;;;;20.27;2.22;;;;;;;21.37;60.07;98202.16;7314432;19;129197;-63
2022/12/23 03:45:28;;;;;;;20.65;2.33;;;;;;;21.38;61.68;98198.56;7314301;19;129303;-62
2022/12/23 03:48:12;;;;;;;25.38;2.72;;;;;;;21.38;61.83;98195.97;7312807;19;129156;-62
2022/12/23 03:50:38;;;;;;;29.73;2.92;;;;;;;21.35;59.37;98191.09;7311976;19;130150;-63
2022/12/23 03:53:13;;;;;;;16.00;1.85;;;;;;;21.38;61.85;98195.97;7314138;19;129072;-62
2022/12/23 03:55:45;;;;;;;16.42;1.77;;;;;;;21.38;59.81;98195.97;7313471;19;128908;-61
2022/12/23 03:58:38;;;;;;;10.13;1.40;;;;;;;21.37;61.95;98204.78;7313929;19;129537;-62
2022/12/23 04:01:08;;;;;;;18.00;2.25;;;;;;;21.38;60.84;98206.41;7310474;19;129161;-62
2022/12/23 04:03:52;;;;;;;27.77;2.78;;;;;;;21.34;61.55;98199.91;7313676;19;129353;-63
2022/12/23 04:06:19;;;;;;;36.13;3.55;;;;;;;21.34;60.58;98199.91;7310145;19;129525;-63
2022/12/23 04:08:46;;;;;;;20.00;2.00;;;;;;;21.35;60.95;98201.53;7312670;19;128963;-63
2022/12/23 04:11:12;;;;;;;14.10;1.70;;;;;;;21.37;61.12;98203.97;7310822;19;129277;-63
2022/12/23 04:13:38;;;;;;;16.70;1.88;;;;;;;21.36;60.93;98203.16;7313023;19;129582;-65
2022/12/23 04:16:04;;;;;;;23.58;2.38;;;;;;;21.33;59.77;98202.69;7312291;19;129629;-63
2022/12/23 04:18:29;;;;;;;26.20;2.63;;;;;;;21.31;60.47;98210.69;7313584;19;129318;-62
2022/12/23 04:20:55;;;;;;;22.92;2.38;;;;;;;21.33;60.99;98211.34;7311041;19;129408;-62
2022/12/23 04:23:20;;;;;;;17.10;2.13;;;;;;;21.29;60.14;98202.22;7312692;19;131030;-63
2022/12/23 04:25:45;;;;;;;39.47;3.85;;;;;;;21.29;59.99;98212.66;7310788;19;129287;-63
2022/12/23 04:28:11;;;;;;;26.40;2.90;;;;;;;21.26;60.40;98213.00;7312700;19;129137;-63
2022/12/23 04:30:36;;;;;;;16.83;1.77;;;;;;;21.30;61.50;98208.25;7311663;19;129488;-64
2022/12/23 04:33:02;;;;;;;16.15;1.75;;;;;;;21.24;59.95;98212.34;7312699;19;129702;-63
2022/12/23 04:35:27;;;;;;;24.13;2.57;;;;;;;21.21;58.72;98209.28;7312689;19;129193;-63
2022/12/23 04:37:53;;;;;;;25.85;2.80;;;;;;;21.26;58.03;98186.88;7311968;19;129885;-63
2022/12/23 04:40:18;;;;;;;33.92;3.83;;;;;;;21.76;57.24;98209.94;7311127;19;130058;-64
2022/12/23 04:42:43;;;;;;;23.42;2.88;;;;;;;22.03;55.35;98190.31;7311630;19;128996;-62
2022/12/23 04:45:09;;;;;;;41.03;3.97;;;;;;;22.48;54.80;98201.50;7311116;19;129311;-61
2022/12/23 04:47:34;;;;;;;16.25;1.95;;;;;;;22.89;53.88;98209.78;7312874;19;129606;-64
2022/12/23 04:50:00;;;;;;;22.13;2.40;;;;;;;23.11;52.64;98200.97;7308525;19;129201;-64
2022/12/23 04:52:25;;;;;;;22.50;2.63;;;;;;;23.11;53.07;98172.13;7308890;19;128984;-63
2022/12/23 04:54:50;;;;;;;37.85;3.80;;;;;;;23.30;52.81;98197.81;7311377;19;128992;-63
2022/12/23 04:57:16;;;;;;;18.23;2.20;;;;;;;23.45;52.07;98201.22;7309989;19;129973;-63
2022/12/23 04:59:41;;;;;;;15.20;1.70;;;;;;;23.54;51.92;98199.28;7307752;19;129444;-61
2022/12/23 05:02:07;;;;;;;19.30;2.17;;;;;;;23.60;51.55;98211.69;7306513;19;128985;-63
2022/12/23 05:04:32;;;;;;;27.27;2.75;;;;;;;23.60;51.44;98204.59;7311965;19;130331;-61
2022/12/23 05:06:57;;;;;;;21.98;2.70;;;;;;;23.66;52.03;98206.50;7311206;19;131882;-62
2022/12/23 05:09:23;;;;;;;15.45;1.85;;;;;;;23.69;51.52;98198.25;7309370;19;129559;-61
2022/12/23 05:11:49;;;;;;;25.17;2.87;;;;;;;23.73;51.49;98201.31;7308475;19;129475;-62
2022/12/23 05:14:14;;;;;;;12.80;1.27;;;;;;;23.81;51.00;98198.56;7309329;19;130125;-63
2022/12/23 05:16:39;;;;;;;12.67;1.37;;;;;;;23.89;50.97;98188.75;7310569;19;129467;-62
2022/12/23 05:19:05;;;;;;;19.15;2.05;;;;;;;24.01;51.03;98192.53;7311469;19;129258;-63
2022/12/23 05:21:30;;;;;;;30.70;2.83;;;;;;;24.03;50.74;98195.75;7308375;19;129304;-63
2022/12/23 05:23:55;;;;;;;26.67;2.60;;;;;;;24.05;51.30;98199.00;7311703;19;129022;-62
2022/12/23 05:26:22;;;;;;;20.87;2.33;;;;;;;24.06;51.11;98184.09;7310544;19;129567;-63
2022/12/23 05:28:47;;;;;;;30.43;2.43;;;;;;;24.24;50.68;98190.50;7310675;19;129889;-63
2022/12/23 05:31:13;;;;;;;32.58;2.78;;;;;;;24.29;50.45;98190.75;7307049;19;129169;-64
2022/12/23 05:33:39;;;;;;;22.05;2.00;;;;;;;24.31;49.75;98188.72;7311636;19;129567;-62
2022/12/23 05:36:05;;;;;;;17.63;1.60;;;;;;;24.27;50.43;98198.00;7310416;19;129875;-63
2022/12/23 05:38:30;;;;;;;28.98;2.55;;;;;;;24.16;50.68;98190.63;7308747;19;131425;-62
2022/12/23 05:40:56;;;;;;;41.88;4.03;;;;;;;24.00;50.84;98204.03;7308149;19;130612;-63
2022/12/23 05:43:22;;;;;;;18.38;1.80;;;;;;;23.88;51.51;98207.31;7311482;19;128728;-63
2022/12/23 05:45:48;;;;;;;26.93;2.47;;;;;;;23.74;51.72;98210.81;7309492;19;129723;-63
2022/12/23 05:48:14;;;;;;;25.85;2.25;;;;;;;23.55;52.39;98201.72;7309660;19;129549;-63
2022/12/23 05:50:39;;;;;;;23.97;2.10;;;;;;;23.32;52.50;98193.19;7308455;19;129511;-63
2022/12/23 05:53:05;;;;;;;17.42;1.80;;;;;;;23.30;53.15;98212.75;7308593;19;128822;-61
2022/12/23 05:55:31;;;;;;;23.53;2.33;;;;;;;23.28;53.55;98226.03;7309239;19;129375;-62
2022/12/23 05:57:56;;;;;;;36.80;3.22;;;;;;;23.24;53.74;98220.31;7309449;19;129092;-63
2022/12/23 06:00:22;;;;;;;51.63;4.40;;;;;;;23.27;53.37;98215.75;7308619;19;129296;-63
2022/12/23 06:02:47;;;;;;;24.20;2.33;;;;;;;23.35;53.24;98213.81;7305454;19;130190;-64
2022/12/23 06:05:13;;;;;;;31.20;2.90;;;;;;;23.40;53.08;98223.75;7308237;19;129012;-65
2022/12/23 06:07:39;;;;;;;29.47;2.50;;;;;;;23.51;53.07;98223.28;7308351;19;129707;-63
2022/12/23 06:10:07;;;;;;;34.53;3.57;;;;;;;23.57;52.18;98225.97;7307723;19;128809;-64
2022/12/23 06:12:32;;;;;;;20.42;1.88;;;;;;;23.68;51.91;98217.63;7314192;19;130221;-63
2022/12/23 06:14:58;;;;;;;36.63;3.73;;;;;;;23.78;52.04;98222.56;7314350;19;129214;-64
2022/12/23 06:17:23;;;;;;;43.28;3.95;;;;;;;23.90;51.33;98228.94;7311177;19;130895;-66
2022/12/23 06:19:49;;;;;;;34.00;3.13;;;;;;;23.91;51.73;98228.75;7310279;19;129788;-62
2022/12/23 06:22:16;;;;;;;40.30;3.85;;;;;;;23.96;51.36;98221.13;7307956;19;129337;-63
2022/12/23 06:24:42;;;;;;;22.35;2.22;;;;;;;24.09;50.92;98231.78;7313515;19;130756;-63
2022/12/23 06:27:07;;;;;;;37.37;3.17;;;;;;;24.01;51.28;98231.91;7311234;19;129421;-66
2022/12/23 06:29:32;;;;;;;17.23;1.67;;;;;;;23.99;50.88;98241.78;7314002;19;130199;-64
2022/12/23 06:31:58;;;;;;;23.08;2.45;;;;;;;23.88;51.59;98242.22;7313949;19;130708;-64
2022/12/23 06:34:23;;;;;;;22.93;2.33;;;;;;;23.78;52.13;98244.38;7311273;19;129521;-63
2022/12/23 06:36:48;;;;;;;21.97;2.17;;;;;;;23.66;52.14;98245.84;7311892;19;129025;-66
2022/12/23 06:39:14;;;;;;;21.50;2.10;;;;;;;23.55;52.37;98248.16;7315749;19;129084;-65
2022/12/23 06:41:39;;;;;;;16.73;1.65;;;;;;;23.43;53.37;98255.69;7312895;19;129733;-63
2022/12/23 06:44:05;;;;;;;20.00;1.97;;;;;;;23.20;53.23;98247.09;7315284;19;129623;-63
2022/12/23 06:46:30;;;;;;;22.97;2.33;;;;;;;23.19;52.86;98245.44;7313493;19;129803;-62
2022/12/23 06:48:55;;;;;;;23.77;2.57;;;;;;;23.29;53.08;98259.13;7315405;19;130366;-64
2022/12/23 06:51:21;;;;;;;8.30;1.13;;;;;;;23.32;53.42;98264.00;7313843;19;129604;-64
2022/12/23 06:53:46;;;;;;;41.03;3.77;;;;;;;23.42;52.49;98263.75;7315225;19;130015;-65
2022/12/23 06:56:12;;;;;;;24.65;2.10;;;;;;;23.51;52.56;98267.88;7313156;19;132766;-64
2022/12/23 06:58:37;;;;;;;4.90;0.70;;;;;;;23.62;52.69;98268.19;7315597;19;128820;-64
2022/12/23 07:01:03;;;;;;;28.80;3.13;;;;;;;23.75;51.89;98268.34;7311586;19;130491;-64
2022/12/23 07:03:28;;;;;;;29.00;2.90;;;;;;;23.83;51.46;98259.56;7310562;19;131788;-65
2022/12/23 07:05:53;;;;;;;26.40;2.57;;;;;;;23.90;51.37;98263.88;7312461;19;132631;-64
2022/12/23 07:08:19;;;;;;;25.87;2.53;;;;;;;24.04;51.02;98270.91;7311441;19;129393;-64
2022/12/23 07:10:44;;;;;;;16.47;1.67;;;;;;;24.10;50.68;98270.16;7310108;19;129342;-65
2022/12/23 07:13:10;;;;;;;29.90;2.67;;;;;;;24.05;51.61;98272.53;7311938;19;132701;-64
2022/12/23 07:15:36;;;;;;;31.83;3.17;;;;;;;23.88;51.75;98250.09;7308044;19;130806;-64
2022/12/23 07:18:01;;;;;;;24.35;1.90;;;;;;;23.89;51.73;98262.25;7314077;19;129069;-65
2022/12/23 07:20:27;;;;;;;23.33;2.13;;;;;;;23.79;52.07;98272.25;7314197;19;129641;-63
2022/12/23 07:22:56;;;;;;;31.93;2.90;;;;;;;23.67;52.21;98275.53;7312253;19;129051;-63
2022/12/23 07:25:22;;;;;;;30.55;3.03;;;;;;;23.60;52.75;98283.31;7312003;19;130378;-64
2022/12/23 07:27:51;;;;;;;21.88;2.20;;;;;;;23.44;53.21;98267.78;7313502;19;129512;-65
2022/12/23 07:30:16;;;;;;;23.98;2.08;;;;;;;23.38;53.48;98279.03;7309527;19;129152;-64
2022/12/23 07:32:42;;;;;;;25.00;2.17;;;;;;;23.37;53.51;98290.50;7313930;19;129597;-64
2022/12/23 07:35:07;;;;;;;41.73;3.87;;;;;;;23.44;53.31;98283.53;7308589;19;129377;-65
2022/12/23 07:37:33;;;;;;;36.63;3.13;;;;;;;23.46;53.42;98294.66;7308680;19;129934;-62
2022/12/23 07:39:58;;;;;;;44.07;4.17;;;;;;;23.54;52.57;98289.31;7308934;19;130707;-66
2022/12/23 07:42:23;;;;;;;35.70;3.33;;;;;;;23.65;52.80;98299.31;7308538;19;129676;-64
2022/12/23 07:44:48;;;;;;;22.48;2.22;;;;;;;23.75;52.68;98291.97;7310355;19;129949;-63
2022/12/23 07:47:14;;;;;;;24.65;2.40;;;;;;;23.84;51.78;98296.13;7310574;19;130537;-64
2022/12/23 07:49:39;;;;;;;19.63;1.67;;;;;;;23.94;51.91;98294.00;7311766;19;129816;-62
2022/12/23 07:52:05;;;;;;;41.17;3.53;;;;;;;23.96;51.32;98284.16;7308699;19;130281;-63
2022/12/23 07:54:30;;;;;;;17.50;1.60;;;;;;;24.12;51.62;98299.69;7310543;19;130068;-63
2022/12/23 07:56:56;;;;;;;21.70;2.40;;;;;;;24.11;51.60;98282.28;7311946;19;130254;-63
2022/12/23 07:59:24;;;;;;;27.98;2.45;;;;;;;24.26;51.03;98296.16;7310134;19;130848;-63
2022/12/23 08:01:49;;;;;;;30.42;2.97;;;;;;;24.11;51.09;98281.47;7310240;19;129102;-63
2022/12/23 08:04:15;;;;;;;45.87;3.77;;;;;;;24.15;51.64;98298.47;7310524;19;129486;-62
2022/12/23 08:06:41;;;;;;;21.37;1.93;;;;;;;24.02;51.71;98293.91;7313007;19;129569;-63
2022/12/23 08:09:08;;;;;;;24.60;2.30;;;;;;;23.93;51.74;98305.50;7312385;19;128821;-64
2022/12/23 08:11:33;;;;;;;23.33;2.45;;;;;;;23.84;51.96;98301.38;7304961;19;132660;-62
2022/12/23 08:13:58;;;;;;;30.53;3.30;;;;;;;23.64;50.86;98310.00;7312660;19;129572;-61
2022/12/23 08:16:24;;;;;;;87.15;7.40;;;;;;;23.52;51.60;98301.78;7308392;19;132039;-63
2022/12/23 08:18:49;;;;;;;49.50;4.97;;;;;;;23.46;52.73;98306.94;7308183;19;129650;-62
2022/12/23 08:21:18;;;;;;;20.37;2.10;;;;;;;23.44;52.90;98306.31;7310478;19;129126;-63
2022/12/23 08:23:45;;;;;;;21.33;2.33;;;;;;;23.44;52.79;98306.31;7308100;19;131968;-63
2022/12/23 08:26:22;;;;;;;7.07;0.98;;;;;;;23.49;52.76;98299.53;7311016;19;129425;-62
2022/12/23 08:28:52;;;;;;;40.37;3.60;;;;;;;23.54;52.28;98289.31;7307682;19;129343;-63
2022/12/23 08:31:26;;;;;;;23.08;2.20;;;;;;;23.61;52.35;98292.81;7309329;19;129691;-62
2022/12/23 08:33:55;;;;;;;28.38;3.05;;;;;;;23.83;51.81;98299.72;7306776;19;131744;-64
2022/12/23 08:36:23;;;;;;;20.63;2.25;;;;;;;23.92;51.56;98293.38;7307237;19;129564;-63
2022/12/23 08:38:50;;;;;;;19.65;2.08;;;;;;;23.90;49.57;98300.63;7312623;19;129594;-63
2022/12/23 08:41:19;;;;;;;49.45;4.70;;;;;;;24.09;49.32;98307.94;7306322;19;129511;-62
2022/12/23 08:43:45;;;;;;;21.88;2.20;;;;;;;24.19;49.73;98316.31;7311882;19;130072;-65
2022/12/23 08:46:10;;;;;;;26.27;2.73;;;;;;;24.25;49.30;98312.13;7309373;19;129306;-64
2022/12/23 08:48:36;;;;;;;29.30;2.90;;;;;;;24.25;49.23;98320.81;7309202;19;129059;-65
2022/12/23 08:51:11;;;;;;;20.95;2.30;;;;;;;24.15;49.94;98317.69;7303542;19;133398;-64
2022/12/23 08:53:38;;;;;;;37.80;3.95;;;;;;;24.10;50.12;98330.56;7310722;19;129178;-64
2022/12/23 08:56:10;;;;;;;39.92;4.95;;;;;;;24.00;50.32;98337.91;7303059;19;130872;-65
2022/12/23 08:58:40;;;;;;;21.55;2.28;;;;;;;23.88;50.89;98323.59;7305060;19;131117;-64
2022/12/23 09:01:08;;;;;;;25.92;2.53;;;;;;;23.67;50.95;98312.28;7298121;19;130945;-67
2022/12/23 09:03:35;;;;;;;24.15;2.25;;;;;;;23.66;51.84;98329.81;7308695;19;130480;-66
2022/12/23 09:06:16;;;;;;;44.47;4.43;;;;;;;23.55;51.77;98332.91;7309149;19;129098;-65
2022/12/23 09:08:41;;;;;;;24.60;2.28;;;;;;;23.49;52.10;98331.00;7307762;19;129434;-65
2022/12/23 09:11:08;;;;;;;34.37;3.27;;;;;;;23.48;52.34;98329.41;7304065;19;132010;-66
2022/12/23 09:13:33;;;;;;;20.15;1.98;;;;;;;23.52;52.81;98335.88;7306522;19;130697;-67
2022/12/23 09:15:59;;;;;;;38.15;3.63;;;;;;;23.66;52.06;98329.00;7307753;19;129042;-64
2022/12/23 09:18:24;;;;;;;20.83;2.13;;;;;;;23.68;51.78;98335.72;7309670;19;129640;-66
2022/12/23 09:20:59;;;;;;;27.10;2.60;;;;;;;23.83;51.63;98336.47;7309945;19;131771;-65
2022/12/23 09:23:25;;;;;;;34.95;3.75;;;;;;;23.94;51.35;98337.81;7304622;19;129336;-67
2022/12/23 09:25:50;;;;;;;43.43;4.13;;;;;;;23.96;50.96;98338.44;7307619;19;130167;-65
2022/12/23 09:28:16;;;;;;;46.50;4.37;;;;;;;24.00;49.52;98335.28;7307776;19;128992;-65
2022/12/23 09:30:41;;;;;;;35.97;3.93;;;;;;;24.01;50.29;98329.06;7302006;19;130767;-68
2022/12/23 09:33:06;;;;;;;58.65;5.68;;;;;;;23.98;50.67;98339.13;7300080;19;129785;-66
2022/12/23 09:35:32;;;;;;;36.65;3.28;;;;;;;23.78;50.82;98315.25;7304937;19;130928;-66
2022/12/23 09:37:57;;;;;;;36.10;3.60;;;;;;;23.81;51.42;98340.28;7304495;19;130979;-67
2022/12/23 09:40:23;;;;;;;20.77;2.23;;;;;;;23.76;51.48;98340.03;7306468;19;129650;-65
2022/12/23 09:42:48;;;;;;;24.40;2.47;;;;;;;23.64;52.22;98352.81;7309274;19;129684;-67
2022/12/23 09:45:18;;;;;;;48.23;4.80;;;;;;;23.54;52.45;98341.78;7310782;19;129729;-67
2022/12/23 09:47:44;;;;;;;17.20;2.33;;;;;;;23.44;52.49;98340.41;7317949;19;129018;-65
2022/12/23 09:50:32;;;;;;;24.83;2.53;;;;;;;23.30;52.73;98343.88;7314588;19;129084;-66
2022/12/23 09:53:00;;;;;;;;;;;;;;;23.23;53.61;98349.00;7316709;19;129309;-66
2022/12/23 09:55:55;;;;;;;25.52;2.65;;;;;;;23.14;53.47;98348.25;7317259;19;129098;-67
2022/12/23 09:58:25;;;;;;;23.13;2.35;;;;;;;23.10;54.14;98354.03;7315300;19;129194;-66
2022/12/23 10:01:09;;;;;;;37.42;3.47;;;;;;;23.04;53.51;98352.13;7314819;19;129791;-66
2022/12/23 10:04:02;;;;;;;76.18;6.47;;;;;;;22.94;54.42;98348.97;7313299;19;132052;-67
2022/12/23 10:06:29;;;;;;;26.30;2.55;;;;;;;22.76;54.20;98343.22;7319240;19;128923;-67
2022/12/23 10:09:01;;;;;;;29.83;2.90;;;;;;;22.83;54.93;98367.72;7317763;19;129499;-65
2022/12/23 10:11:48;;;;;;;19.13;2.25;;;;;;;22.73;56.28;98357.50;7315381;19;129019;-66
2022/12/23 10:14:28;;;;;;;14.30;1.63;;;;;;;22.69;56.85;98350.16;7316467;19;129252;-65
2022/12/23 10:17:13;;;;;;;17.67;1.98;;;;;;;;;;7317185;19;130238;-65
2022/12/23 10:19:42;;;;;;;23.33;2.80;;;;;;;22.60;55.14;98356.44;7315804;19;129364;-68
2022/12/23 10:22:36;;;;;;;19.20;2.15;;;;;;;22.59;58.17;98362.69;7314213;19;129589;-65
2022/12/23 10:25:04;;;;;;;29.40;3.35;;;;;;;22.57;56.35;98367.28;7315463;19;129253;-67
2022/12/23 10:27:39;;;;;;;33.65;3.40;;;;;;;22.56;58.01;98366.47;7315447;19;129168;-66
2022/12/23 10:30:16;;;;;;;34.03;3.28;;;;;;;22.45;58.79;98358.16;7314811;19;130609;-66
2022/12/23 10:33:00;;;;;;;22.63;2.35;;;;;;;22.53;57.98;98366.81;7316247;19;129867;-67
2022/12/23 10:35:56;;;;;;;21.08;2.10;;;;;;;22.52;59.44;98359.94;7317307;19;129159;-67
2022/12/23 10:38:51;;;;;;;35.80;3.40;;;;;;;22.52;59.25;98353.88;7315517;19;129471;-67
2022/12/23 10:41:27;;;;;;;35.55;3.60;;;;;;;22.52;59.49;98353.88;7314362;19;128904;-65
2022/12/23 10:44:23;;;;;;;28.42;2.95;;;;;;;22.50;59.06;98359.28;7315760;19;129035;-67
2022/12/23 10:46:59;;;;;;;43.42;4.03;;;;;;;22.51;58.86;98347.00;7313987;19;131927;-65
2022/12/23 10:49:50;;;;;;;25.42;2.90;;;;;;;22.49;59.29;98354.22;7315712;19;129533;-66
2022/12/23 10:52:22;;;;;;;27.83;2.78;;;;;;;22.36;58.48;98330.44;7314663;19;129733;-66
2022/12/23 10:54:48;;;;;;;20.00;2.40;;;;;;;22.45;58.85;98339.84;7315528;19;129334;-65
2022/12/23 10:57:16;;;;;;;9.43;1.27;;;;;;;22.41;58.54;98336.75;7312027;19;129131;-66
2022/12/23 10:59:42;;;;;;;18.83;2.40;;;;;;;22.44;58.36;98346.06;7314306;19;129529;-66
2022/12/23 11:02:13;;;;;;;38.70;3.50;;;;;;;22.44;59.35;98346.06;7314848;19;130028;-66
2022/12/23 11:04:40;;;;;;;18.42;1.90;;;;;;;22.42;59.12;98337.56;7315868;19;129604;-68
2022/12/23 11:07:29;;;;;;;18.60;1.95;;;;;;;22.40;59.63;98332.50;7314646;19;131003;-67
2022/12/23 11:10:01;;;;;;;26.27;2.50;;;;;;;22.37;59.64;98339.91;7312792;19;128940;-67
2022/12/23 11:12:40;;;;;;;7.97;1.35;;;;;;;22.39;60.33;98344.00;7311819;19;129258;-66
2022/12/23 11:15:37;;;;;;;28.58;3.13;;;;;;;22.37;59.77;98351.19;7315494;19;129968;-66
2022/12/23 11:18:12;;;;;;;17.23;2.05;;;;;;;22.37;58.83;98350.38;7314939;19;129424;-65
2022/12/23 11:20:39;;;;;;;24.98;2.63;;;;;;;22.21;59.37;98324.31;7313184;19;129780;-67
2022/12/23 11:23:21;;;;;;;30.23;2.85;;;;;;;22.20;58.40;98330.53;7315411;19;130575;-69
2022/12/23 11:25:47;;;;;;;32.88;3.22;;;;;;;22.26;58.75;98354.22;7315134;19;130342;-65
2022/12/23 11:28:17;;;;;;;17.08;1.67;;;;;;;22.23;59.10;98345.91;7313232;19;129517;-68
2022/12/23 11:30:56;;;;;;;16.58;1.60;;;;;;;22.21;59.59;98353.13;7310189;19;129433;-67
2022/12/23 11:33:29;;;;;;;6.15;1.08;;;;;;;22.18;58.91;98358.69;7313945;19;129916;-66
2022/12/23 11:36:12;;;;;;;34.33;3.38;;;;;;;22.21;60.08;98366.19;7313236;19;129692;-65
2022/12/23 11:38:52;;;;;;;26.33;2.55;;;;;;;22.16;60.22;98368.53;7314260;19;129479;-67
2022/12/23 11:41:23;;;;;;;37.30;3.78;;;;;;;22.14;59.57;98365.25;7312284;19;128879;-65
2022/12/23 11:44:10;;;;;;;22.35;2.30;;;;;;;22.15;60.25;98372.13;7315195;19;129386;-67
2022/12/23 11:46:35;;;;;;;17.83;1.80;;;;;;;22.06;58.75;98367.91;7314149;19;129514;-67
2022/12/23 11:49:15;;;;;;;15.80;2.38;;;;;;;22.07;59.74;98364.31;7313287;19;129585;-64
2022/12/23 11:51:43;;;;;;;9.10;1.35;;;;;;;22.10;59.84;98375.25;7312213;19;129358;-67
2022/12/23 11:54:18;;;;;;;17.70;1.83;;;;;;;21.98;60.37;98354.88;7314584;19;129197;-66
2022/12/23 11:56:48;;;;;;;30.75;2.97;;;;;;;22.05;60.40;98372.34;7312311;19;131661;-65
2022/12/23 11:59:39;;;;;;;31.85;3.20;;;;;;;22.10;60.28;98374.47;7312448;19;132718;-67